Latest Weather Observations for Keith West

IDS60801

Issued at 6:01 pm CDT Tuesday 17 October 2017 (issued every 30 minutes, with the page automatically refreshed every 10 minutes)

About weather observations | Map of weather stations | Latest weather observations for SA | Other Formats
Station Details ID: 025557 Name: MUNKORA Lat: -36.11 Lon: 140.33 Height: 27.0 m
Data from the previous 72 hours. | See also: Recent months at Keith West
Date/Time
CDT
Temp
°C
App
Temp
°C
Dew
Point
°C
Rel
Hum
%
Delta-T
°C
Wind Press
QNH
hPa
Press
MSL
hPa
Rain since
9am
mm
Dir  Spd
km/h
Gust
km/h
Spd
kts
Gust
kts
17/06:00pm 31.3 27.5 5.7 20 13.6 NNE 15 24 8 13 1015.3 1015.3 0.0
17/05:30pm 32.1 27.7 4.8 18 14.3 NNE 17 28 9 15 1015.1 1015.1 0.0
17/05:00pm 32.5 27.7 2.5 15 15.2 N 17 24 9 13 1015.1 1015.1 0.0
17/04:30pm 32.9 27.9 3.8 16 15.1 NNE 19 32 10 17 1015.0 1015.0 0.0
17/04:00pm 33.1 27.8 3.0 15 15.4 N 20 33 11 18 1015.0 1015.0 0.0
17/03:30pm 32.9 27.4 1.9 14 15.6 N 20 30 11 16 1015.4 1015.4 0.0
17/03:00pm 32.9 26.7 -0.2 12 16.1 N 22 33 12 18 1015.7 1015.7 0.0
17/02:30pm 33.0 27.0 0.9 13 15.9 N 22 35 12 19 1016.2 1016.2 0.0
17/02:00pm 32.7 25.9 0.7 13 15.8 N 26 37 14 20 1016.5 1016.5 0.0
17/01:30pm 32.3 25.1 0.4 13 15.6 NNE 28 43 15 23 1016.7 1016.7 0.0
17/01:00pm 32.6 25.6 1.7 14 15.5 N 28 43 15 23 1017.0 1017.0 0.0
17/12:30pm 31.7 25.7 1.0 14 15.1 NNE 22 35 12 19 1017.2 1017.2 0.0
17/12:00pm 31.4 23.8 0.7 14 15.0 N 30 43 16 23 1017.7 1017.7 0.0
17/11:30am 31.1 23.6 1.4 15 14.6 N 30 43 16 23 1017.9 1017.9 0.0
17/11:00am 31.2 24.3 2.4 16 14.5 NNE 28 41 15 22 1018.1 1018.1 0.0
17/10:30am 30.0 25.0 4.6 20 13.1 N 20 30 11 16 1018.4 1018.4 0.0
17/10:00am 28.4 23.5 5.3 23 12.0 N 20 30 11 16 1018.6 1018.6 0.0
17/09:30am 26.6 20.9 5.0 25 11.0 NNE 24 33 13 18 1018.6 1018.6 0.0
17/09:00am 24.9 19.3 5.2 28 10.0 NNE 24 35 13 19 1018.5 1018.5 0.0
17/08:30am 23.5 18.3 5.4 31 9.1 NNE 22 30 12 16 1018.4 1018.4 0.0
17/08:00am 20.6 15.6 6.5 40 7.1 NE 22 30 12 16 1018.3 1018.3 0.0
17/07:30am 18.7 14.4 6.9 46 5.9 NE 19 28 10 15 1018.2 1018.2 0.0
17/07:00am 17.7 13.2 6.9 49 5.4 NE 20 26 11 14 1018.2 1018.2 0.0
17/06:30am 17.7 12.8 6.9 49 5.4 NE 22 30 12 16 1017.9 1017.9 0.0
17/06:00am 18.4 13.9 6.9 47 5.8 NE 20 32 11 17 1017.5 1017.5 0.0
17/05:30am 18.6 14.1 7.1 47 5.8 NE 20 28 11 15 1017.2 1017.2 0.0
17/05:00am 18.8 14.4 7.3 47 5.8 NE 20 30 11 16 1017.1 1017.1 0.0
17/04:30am 18.9 14.6 7.7 48 5.7 NE 20 28 11 15 1017.1 1017.1 0.0
17/04:00am 18.9 14.6 8.0 49 5.6 NE 20 28 11 15 1017.2 1017.2 0.0
17/03:30am 18.1 14.1 8.4 53 5.0 NE 19 24 10 13 1017.1 1017.1 0.0
17/03:00am 18.4 14.4 8.4 52 5.2 NE 19 24 10 13 1017.2 1017.2 0.0
17/02:30am 18.3 14.4 8.6 53 5.0 NE 19 26 10 14 1017.3 1017.3 0.0
17/02:00am 18.5 15.0 8.7 53 5.1 NE 17 22 9 12 1017.5 1017.5 0.0
17/01:30am 18.5 15.4 8.7 53 5.1 ENE 15 20 8 11 1017.9 1017.9 0.0
17/01:00am 18.3 15.2 8.8 54 4.9 NE 15 20 8 11 1018.2 1018.2 0.0
17/12:30am 18.4 15.5 9.5 56 4.7 ENE 15 19 8 10 1018.3 1018.3 0.0
17/12:00am 17.3 15.2 9.7 61 4.0 E 11 17 6 9 1018.5 1018.5 0.0
 
Date/Time
CDT
Temp
°C
App
Temp
°C
Dew
Point
°C
Rel
Hum
%
Delta-T
°C
Wind Press
QNH
hPa
Press
MSL
hPa
Rain since
9am
mm
Dir  Spd
km/h
Gust
km/h
Spd
kts
Gust
kts
16/11:30pm 17.9 15.4 9.8 59 4.3 E 13 15 7 8 1018.7 1018.7 0.0
16/11:00pm 17.7 15.4 10.6 63 3.8 E 13 19 7 10 1018.7 1018.7 0.0
16/10:30pm 16.3 14.3 10.2 67 3.2 ESE 11 15 6 8 1018.7 1018.7 0.0
16/10:00pm 16.2 14.4 9.6 65 3.4 ESE 9 13 5 7 1018.6 1018.6 0.0
16/09:30pm 18.1 16.3 9.5 57 4.5 SE 9 11 5 6 1018.7 1018.7 0.0
16/09:00pm 19.6 17.9 10.0 54 5.1 SE 9 9 5 5 1018.6 1018.6 0.0
16/08:30pm 18.7 16.7 10.0 57 4.6 ESE 11 15 6 8 1018.4 1018.4 0.0
16/08:00pm 19.7 17.6 9.6 52 5.4 ESE 11 15 6 8 1018.0 1018.0 0.0
16/07:30pm 22.0 19.4 9.2 44 6.8 ESE 13 17 7 9 1017.7 1017.7 0.0
16/07:00pm 23.9 21.7 9.5 40 7.8 SE 11 13 6 7 1017.7 1017.7 0.0
16/06:30pm 27.2 24.2 7.6 29 10.5 SE 13 19 7 10 1017.6 1017.6 0.0
16/06:00pm 28.8 25.2 6.8 25 11.7 ESE 15 19 8 10 1017.6 1017.6 0.0
16/05:30pm 29.8 26.4 5.8 22 12.6 ESE 13 20 7 11 1017.6 1017.6 0.0
16/05:00pm 30.3 26.6 6.2 22 12.8 ESE 15 20 8 11 1017.7 1017.7 0.0
16/04:30pm 30.8 27.5 6.6 22 13.0 ESE 13 24 7 13 1017.8 1017.8 0.0
16/04:00pm 30.3 27.3 6.2 22 12.8 SE 11 19 6 10 1018.1 1018.1 0.0
16/03:30pm 30.8 27.9 6.6 22 13.0 E 11 19 6 10 1018.3 1018.3 0.0
16/03:00pm 30.4 26.9 5.6 21 13.0 ENE 13 24 7 13 1018.7 1018.7 0.0
16/02:30pm 30.6 27.3 6.5 22 12.9 ENE 13 24 7 13 1019.0 1019.0 0.0
16/02:00pm - - - - - NE 6 22 3 12 1019.3 1019.3 0.0
16/01:30pm - - - - - ENE 13 24 7 13 1019.5 1019.5 0.0
16/01:00pm 29.7 26.7 7.6 25 12.0 ENE 13 22 7 12 1019.9 1019.9 0.0
16/12:30pm 29.5 27.5 8.5 27 11.5 ENE 9 17 5 9 1020.2 1020.2 0.0
16/12:00pm 28.8 25.2 8.5 28 11.1 NNE 17 28 9 15 1020.5 1020.5 0.0
16/11:30am 28.2 23.9 9.5 31 10.4 NE 22 30 12 16 1020.9 1020.9 0.0
16/11:00am 26.8 22.9 9.6 34 9.5 NNE 20 30 11 16 1021.4 1021.4 0.0
16/10:30am 25.5 21.8 9.3 36 8.8 NE 19 24 10 13 1021.8 1021.8 0.0
16/10:00am 23.8 20.6 9.8 41 7.7 NE 17 24 9 13 1022.2 1022.2 0.0
16/09:30am 21.7 19.7 11.4 52 5.7 NE 13 19 7 10 1022.4 1022.4 0.0
16/09:00am 19.7 16.6 11.5 59 4.5 NE 19 26 10 14 1022.3 1022.3 0.0
16/08:30am 17.6 15.6 11.4 67 3.4 ENE 13 17 7 9 1022.2 1022.2 0.0
16/08:00am 15.4 12.6 11.2 76 2.2 ENE 17 20 9 11 1022.2 1022.2 0.0
16/07:30am 13.3 10.3 10.5 83 1.5 ENE 17 24 9 13 1021.9 1021.9 0.0
16/07:00am 11.5 8.3 9.9 90 0.8 ENE 17 22 9 12 1021.8 1021.8 0.0
16/06:30am 9.2 7.1 8.4 95 0.4 E 9 13 5 7 1021.5 1021.5 0.0
16/06:00am 8.2 6.4 7.3 94 0.4 ESE 6 9 3 5 1021.2 1021.2 0.0
16/05:30am 8.3 6.4 7.5 95 0.4 ESE 7 9 4 5 1021.0 1021.0 0.0
16/05:00am 7.4 5.5 6.5 94 0.4 ESE 6 7 3 4 1020.9 1020.9 0.0
16/04:30am 7.4 4.9 6.5 94 0.4 SE 9 9 5 5 1021.1 1021.1 0.0
16/04:00am 7.4 5.3 6.5 94 0.4 SSE 7 7 4 4 1021.1 1021.1 0.0
16/03:30am 8.2 6.4 7.1 93 0.5 SE 6 6 3 3 1021.0 1021.0 0.0
16/03:00am 8.1 6.1 7.0 93 0.5 SE 7 9 4 5 1021.1 1021.1 0.0
16/02:30am 8.4 6.4 7.2 92 0.6 SE 7 9 4 5 1021.3 1021.3 0.0
16/02:00am 9.4 7.4 8.5 94 0.4 SSE 9 13 5 7 1021.4 1021.4 0.0
16/01:30am 8.1 6.0 6.6 90 0.7 SSE 7 9 4 5 1021.8 1021.8 0.0
16/01:00am 8.7 6.9 7.3 91 0.7 ESE 6 7 3 4 1021.9 1021.9 0.0
16/12:30am 9.1 7.2 7.4 89 0.8 ESE 7 9 4 5 1022.1 1022.1 0.0
16/12:00am 9.6 7.7 7.5 87 1.0 SE 7 7 4 4 1022.0 1022.0 0.0
 
Date/Time
CDT
Temp
°C
App
Temp
°C
Dew
Point
°C
Rel
Hum
%
Delta-T
°C
Wind Press
QNH
hPa
Press
MSL
hPa
Rain since
9am
mm
Dir  Spd
km/h
Gust
km/h
Spd
kts
Gust
kts
15/11:30pm 10.5 8.4 8.4 87 1.0 SE 9 11 5 6 1021.9 1021.9 0.0
15/11:00pm 10.4 8.6 8.0 85 1.2 SSE 7 11 4 6 1021.9 1021.9 0.0
15/10:30pm 11.4 9.9 9.0 85 1.2 SE 7 7 4 4 1021.7 1021.7 0.0
15/10:00pm 11.4 9.3 8.1 80 1.6 SSE 9 11 5 6 1021.8 1021.8 0.0
15/09:30pm 13.7 11.9 9.6 76 2.1 SSE 9 11 5 6 1021.6 1021.6 0.0
15/09:00pm 14.4 12.6 9.4 72 2.6 S 9 11 5 6 1021.5 1021.5 0.0
15/08:30pm 14.9 12.8 9.7 71 2.7 SSE 11 13 6 7 1021.4 1021.4 0.0
15/08:00pm 16.5 14.6 10.4 67 3.2 SSE 11 13 6 7 1021.1 1021.1 0.0
15/07:30pm 18.1 16.3 10.7 62 4.0 S 11 15 6 8 1021.1 1021.1 0.0
15/07:00pm 19.5 18.1 10.8 57 4.7 S 9 11 5 6 1021.1 1021.1 0.0
15/06:30pm 21.6 19.5 8.1 42 7.0 SSE 9 13 5 7 1020.8 1020.8 0.0
15/06:00pm 22.9 19.9 5.8 33 8.6 SE 11 15 6 8 1021.0 1021.0 0.0
15/05:30pm 23.4 19.9 5.3 31 9.1 SE 13 22 7 12 1020.9 1020.9 0.0
15/05:00pm 23.8 20.5 6.6 33 8.9 SSE 13 20 7 11 1020.9 1020.9 0.0
15/04:30pm 24.0 20.5 7.2 34 8.7 SSE 15 22 8 12 1020.9 1020.9 0.0
15/04:00pm 24.0 21.3 7.2 34 8.8 S 11 24 6 13 1021.1 1021.1 0.0
15/03:30pm 23.9 20.8 7.1 34 8.7 S 13 20 7 11 1021.4 1021.4 0.0
15/03:00pm 23.7 20.9 5.1 30 9.3 ESE 9 17 5 9 1021.7 1021.7 0.0
15/02:30pm 23.3 20.6 5.7 32 8.9 ESE 9 20 5 11 1022.1 1022.1 0.0
15/02:00pm 23.2 21.0 6.1 33 8.7 SSE 7 20 4 11 1022.4 1022.4 0.0
15/01:30pm 23.0 20.5 6.7 35 8.3 ESE 9 19 5 10 1022.5 1022.5 0.0
15/01:00pm 22.1 19.6 6.7 37 7.9 SE 9 17 5 9 1022.7 1022.7 0.0
15/12:30pm 20.9 18.1 5.3 36 7.7 SE 9 17 5 9 1023.0 1023.0 0.0
15/12:00pm 20.5 17.8 7.2 42 6.8 ESE 11 17 6 9 1023.3 1023.3 0.0
15/11:30am 19.5 16.7 6.9 44 6.3 ESE 11 17 6 9 1023.7 1023.7 0.0
15/11:00am 18.4 15.9 6.6 46 5.9 SE 9 15 5 8 1024.2 1024.2 0.0
15/10:30am 16.6 14.7 7.5 55 4.5 SE 7 13 4 7 1024.6 1024.6 0.0
15/10:00am 15.4 13.8 8.9 65 3.3 SE 7 11 4 6 1024.7 1024.7 0.0
15/09:30am 13.3 11.4 9.0 75 2.2 SE 9 13 5 7 1024.9 1024.9 0.0
15/09:00am 11.7 9.9 9.3 85 1.2 SE 9 13 5 7 1024.8 1024.8 0.0
15/08:30am 10.6 8.9 9.7 94 0.5 SE 9 13 5 7 1024.8 1024.8 0.0
15/08:00am 8.7 6.9 8.1 96 0.3 SSE 7 9 4 5 1024.7 1024.7 0.0
15/07:30am 6.9 4.9 6.3 96 0.3 SSE 6 7 3 4 1024.6 1024.6 0.0
15/07:00am 2.7 0.3 2.1 96 0.2 SSE 4 6 2 3 1024.3 1024.3 0.0
15/06:30am 2.6 0.5 2.0 96 0.2 SSE 2 4 1 2 1024.0 1024.0 0.0
15/06:00am 2.6 0.5 1.9 95 0.3 S 2 4 1 2 1023.6 1023.6 0.0
15/05:30am 3.3 0.4 2.6 95 0.3 SSE 7 9 4 5 1023.3 1023.3 0.0
15/05:00am 4.3 2.5 3.6 95 0.3 SSE 2 4 1 2 1023.5 1023.5 0.0
15/04:30am 4.2 2.0 3.5 95 0.3 SSE 4 6 2 3 1023.4 1023.4 0.0
15/04:00am 6.0 3.6 5.3 95 0.3 SSE 7 9 4 5 1023.5 1023.5 0.0
15/03:30am 5.3 2.8 4.6 95 0.3 S 7 9 4 5 1023.7 1023.7 0.0
15/03:00am 6.1 3.9 5.4 95 0.3 S 6 7 3 4 1023.7 1023.7 0.0
15/02:30am 6.8 4.8 6.1 95 0.3 SE 6 7 3 4 1023.7 1023.7 0.0
15/02:00am 5.4 3.0 4.4 93 0.4 SSE 6 6 3 3 1023.9 1023.9 0.0
15/01:30am 5.1 3.7 3.8 91 0.5 CALM 0 2 0 1 1024.2 1024.2 0.0
15/01:00am 8.1 6.6 7.0 93 0.5 S 4 6 2 3 1024.3 1024.3 0.0
15/12:30am 8.3 6.5 7.2 93 0.5 S 6 9 3 5 1024.3 1024.3 0.0
15/12:00am 8.5 6.6 7.4 93 0.5 S 7 9 4 5 1024.3 1024.3 0.0
 
Date/Time
CDT
Temp
°C
App
Temp
°C
Dew
Point
°C
Rel
Hum
%
Delta-T
°C
Wind Press
QNH
hPa
Press
MSL
hPa
Rain since
9am
mm
Dir  Spd
km/h
Gust
km/h
Spd
kts
Gust
kts
14/11:30pm 9.3 7.2 8.1 92 0.6 SSW 9 13 5 7 1024.3 1024.3 0.0
14/11:00pm 9.9 7.9 8.7 92 0.6 S 9 11 5 6 1024.3 1024.3 0.0
14/10:30pm 9.8 7.4 8.6 92 0.6 S 11 13 6 7 1024.2 1024.2 0.0
14/10:00pm 10.4 8.4 8.7 89 0.8 SSW 9 11 5 6 1024.4 1024.4 0.0
14/09:30pm 11.3 9.2 9.6 89 0.9 SSW 11 13 6 7 1024.3 1024.3 0.0
14/09:00pm 11.6 9.2 9.9 89 0.9 SW 13 15 7 8 1024.3 1024.3 0.0
14/08:30pm 11.8 10.1 9.7 87 1.1 SW 9 11 5 6 1024.2 1024.2 0.0
14/08:00pm 13.4 11.5 10.4 82 1.6 SSW 11 13 6 7 1024.0 1024.0 0.0
14/07:30pm 14.8 13.0 11.0 78 2.0 SW 11 15 6 8 1023.8 1023.8 0.0
14/07:00pm 16.5 14.7 9.4 63 3.7 S 9 13 5 7 1023.5 1023.5 0.0
14/06:30pm 18.2 15.9 9.0 55 4.8 S 11 17 6 9 1023.2 1023.2 0.0

Other Formats:

Comma delimited format used in spreadsheet applications
http://www.bom.gov.au/fwo/IDS60801/IDS60801.95815.axf

JavaScript Object Notation format (JSON) in row-major order
http://www.bom.gov.au/fwo/IDS60801/IDS60801.95815.json